sensor_id;sensor_type;location;lat;lon;timestamp;P1;durP1;ratioP1;P2;durP2;ratioP2
4808;SDS011;2418;49.930;8.606;2024-03-06T00:01:05;15.57;;;11.40;;
4808;SDS011;2418;49.930;8.606;2024-03-06T00:03:31;13.57;;;10.95;;
4808;SDS011;2418;49.930;8.606;2024-03-06T00:05:58;13.40;;;10.70;;
4808;SDS011;2418;49.930;8.606;2024-03-06T00:08:24;17.30;;;11.27;;
4808;SDS011;2418;49.930;8.606;2024-03-06T00:10:50;17.75;;;11.50;;
4808;SDS011;2418;49.930;8.606;2024-03-06T00:13:15;18.33;;;11.97;;
4808;SDS011;2418;49.930;8.606;2024-03-06T00:15:41;16.85;;;11.27;;
4808;SDS011;2418;49.930;8.606;2024-03-06T00:18:07;16.63;;;11.27;;
4808;SDS011;2418;49.930;8.606;2024-03-06T00:20:33;15.85;;;11.50;;
4808;SDS011;2418;49.930;8.606;2024-03-06T00:22:59;13.57;;;10.90;;
4808;SDS011;2418;49.930;8.606;2024-03-06T00:25:25;16.20;;;11.60;;
4808;SDS011;2418;49.930;8.606;2024-03-06T00:27:51;17.83;;;12.18;;
4808;SDS011;2418;49.930;8.606;2024-03-06T00:30:17;17.52;;;11.88;;
4808;SDS011;2418;49.930;8.606;2024-03-06T00:32:43;18.70;;;12.70;;
4808;SDS011;2418;49.930;8.606;2024-03-06T00:35:09;21.58;;;11.25;;
4808;SDS011;2418;49.930;8.606;2024-03-06T00:37:36;17.83;;;13.00;;
4808;SDS011;2418;49.930;8.606;2024-03-06T00:40:01;19.27;;;12.57;;
4808;SDS011;2418;49.930;8.606;2024-03-06T00:42:28;20.60;;;12.82;;
4808;SDS011;2418;49.930;8.606;2024-03-06T00:44:55;16.98;;;12.25;;
4808;SDS011;2418;49.930;8.606;2024-03-06T00:47:21;14.90;;;12.35;;
4808;SDS011;2418;49.930;8.606;2024-03-06T00:49:47;18.45;;;12.75;;
4808;SDS011;2418;49.930;8.606;2024-03-06T00:52:13;17.80;;;12.38;;
4808;SDS011;2418;49.930;8.606;2024-03-06T00:54:39;16.13;;;12.60;;
4808;SDS011;2418;49.930;8.606;2024-03-06T00:57:05;16.85;;;12.50;;
4808;SDS011;2418;49.930;8.606;2024-03-06T00:59:31;18.83;;;12.40;;
4808;SDS011;2418;49.930;8.606;2024-03-06T01:01:57;20.75;;;13.05;;
4808;SDS011;2418;49.930;8.606;2024-03-06T01:04:23;19.92;;;13.80;;
4808;SDS011;2418;49.930;8.606;2024-03-06T01:06:50;17.20;;;12.93;;
4808;SDS011;2418;49.930;8.606;2024-03-06T01:09:16;16.92;;;12.77;;
4808;SDS011;2418;49.930;8.606;2024-03-06T01:11:43;18.27;;;13.43;;
4808;SDS011;2418;49.930;8.606;2024-03-06T01:14:11;20.73;;;13.43;;
4808;SDS011;2418;49.930;8.606;2024-03-06T01:16:37;20.38;;;13.43;;
4808;SDS011;2418;49.930;8.606;2024-03-06T01:19:03;21.98;;;14.10;;
4808;SDS011;2418;49.930;8.606;2024-03-06T01:21:29;25.00;;;13.80;;
4808;SDS011;2418;49.930;8.606;2024-03-06T01:23:55;22.58;;;14.27;;
4808;SDS011;2418;49.930;8.606;2024-03-06T01:26:21;22.42;;;14.57;;
4808;SDS011;2418;49.930;8.606;2024-03-06T01:28:47;23.48;;;13.30;;
4808;SDS011;2418;49.930;8.606;2024-03-06T01:31:13;21.40;;;14.20;;
4808;SDS011;2418;49.930;8.606;2024-03-06T01:33:39;22.95;;;14.40;;
4808;SDS011;2418;49.930;8.606;2024-03-06T01:36:05;24.52;;;14.05;;
4808;SDS011;2418;49.930;8.606;2024-03-06T01:38:31;23.53;;;14.40;;
4808;SDS011;2418;49.930;8.606;2024-03-06T01:40:57;21.63;;;14.23;;
4808;SDS011;2418;49.930;8.606;2024-03-06T01:43:23;22.98;;;14.27;;
4808;SDS011;2418;49.930;8.606;2024-03-06T01:45:50;21.35;;;14.10;;
4808;SDS011;2418;49.930;8.606;2024-03-06T01:48:18;23.67;;;14.20;;
4808;SDS011;2418;49.930;8.606;2024-03-06T01:50:45;25.15;;;15.00;;
4808;SDS011;2418;49.930;8.606;2024-03-06T01:53:12;23.83;;;15.07;;
4808;SDS011;2418;49.930;8.606;2024-03-06T01:55:38;21.92;;;15.57;;
4808;SDS011;2418;49.930;8.606;2024-03-06T01:58:04;23.20;;;15.15;;
4808;SDS011;2418;49.930;8.606;2024-03-06T02:00:31;30.83;;;15.82;;
4808;SDS011;2418;49.930;8.606;2024-03-06T02:02:57;26.67;;;14.77;;
4808;SDS011;2418;49.930;8.606;2024-03-06T02:05:23;21.02;;;15.23;;
4808;SDS011;2418;49.930;8.606;2024-03-06T02:07:49;22.90;;;15.27;;
4808;SDS011;2418;49.930;8.606;2024-03-06T02:10:15;22.13;;;15.45;;
4808;SDS011;2418;49.930;8.606;2024-03-06T02:12:41;20.02;;;14.85;;
4808;SDS011;2418;49.930;8.606;2024-03-06T02:15:08;22.98;;;14.20;;
4808;SDS011;2418;49.930;8.606;2024-03-06T02:17:35;26.40;;;14.80;;
4808;SDS011;2418;49.930;8.606;2024-03-06T02:20:01;23.55;;;14.75;;
4808;SDS011;2418;49.930;8.606;2024-03-06T02:22:30;25.05;;;15.90;;
4808;SDS011;2418;49.930;8.606;2024-03-06T02:24:56;26.67;;;15.67;;
4808;SDS011;2418;49.930;8.606;2024-03-06T02:27:22;26.35;;;15.88;;
4808;SDS011;2418;49.930;8.606;2024-03-06T02:29:48;24.20;;;14.68;;
4808;SDS011;2418;49.930;8.606;2024-03-06T02:32:14;24.85;;;16.00;;
4808;SDS011;2418;49.930;8.606;2024-03-06T02:34:42;24.23;;;15.30;;
4808;SDS011;2418;49.930;8.606;2024-03-06T02:37:09;24.60;;;15.80;;
4808;SDS011;2418;49.930;8.606;2024-03-06T02:39:36;23.77;;;14.90;;
4808;SDS011;2418;49.930;8.606;2024-03-06T02:42:02;19.85;;;14.75;;
4808;SDS011;2418;49.930;8.606;2024-03-06T02:44:28;29.67;;;16.33;;
4808;SDS011;2418;49.930;8.606;2024-03-06T02:46:54;24.08;;;15.60;;
4808;SDS011;2418;49.930;8.606;2024-03-06T02:49:20;25.17;;;15.13;;
4808;SDS011;2418;49.930;8.606;2024-03-06T02:51:46;24.38;;;15.00;;
4808;SDS011;2418;49.930;8.606;2024-03-06T02:54:12;22.80;;;15.10;;
4808;SDS011;2418;49.930;8.606;2024-03-06T02:56:38;24.40;;;15.13;;
4808;SDS011;2418;49.930;8.606;2024-03-06T02:59:04;21.05;;;14.60;;
4808;SDS011;2418;49.930;8.606;2024-03-06T03:01:30;25.70;;;16.33;;
4808;SDS011;2418;49.930;8.606;2024-03-06T03:03:56;23.63;;;15.43;;
4808;SDS011;2418;49.930;8.606;2024-03-06T03:06:23;23.00;;;15.70;;
4808;SDS011;2418;49.930;8.606;2024-03-06T03:08:49;25.23;;;15.40;;
4808;SDS011;2418;49.930;8.606;2024-03-06T03:11:15;26.05;;;14.43;;
4808;SDS011;2418;49.930;8.606;2024-03-06T03:13:41;26.42;;;15.10;;
4808;SDS011;2418;49.930;8.606;2024-03-06T03:16:15;22.00;;;14.50;;
4808;SDS011;2418;49.930;8.606;2024-03-06T03:18:42;28.92;;;15.65;;
4808;SDS011;2418;49.930;8.606;2024-03-06T03:21:08;27.05;;;15.85;;
4808;SDS011;2418;49.930;8.606;2024-03-06T03:23:37;25.52;;;16.67;;
4808;SDS011;2418;49.930;8.606;2024-03-06T03:26:05;23.58;;;16.23;;
4808;SDS011;2418;49.930;8.606;2024-03-06T03:28:31;26.83;;;16.55;;
4808;SDS011;2418;49.930;8.606;2024-03-06T03:30:57;27.85;;;17.52;;
4808;SDS011;2418;49.930;8.606;2024-03-06T03:33:23;33.07;;;18.20;;
4808;SDS011;2418;49.930;8.606;2024-03-06T03:35:49;26.70;;;16.02;;
4808;SDS011;2418;49.930;8.606;2024-03-06T03:38:16;30.63;;;17.20;;
4808;SDS011;2418;49.930;8.606;2024-03-06T03:40:42;23.30;;;15.82;;
4808;SDS011;2418;49.930;8.606;2024-03-06T03:43:08;28.23;;;16.38;;
4808;SDS011;2418;49.930;8.606;2024-03-06T03:45:34;28.95;;;16.27;;
4808;SDS011;2418;49.930;8.606;2024-03-06T03:48:01;26.60;;;16.83;;
4808;SDS011;2418;49.930;8.606;2024-03-06T03:50:28;32.97;;;17.50;;
4808;SDS011;2418;49.930;8.606;2024-03-06T03:52:54;25.40;;;16.17;;
4808;SDS011;2418;49.930;8.606;2024-03-06T03:55:22;30.98;;;16.55;;
4808;SDS011;2418;49.930;8.606;2024-03-06T03:57:48;22.83;;;14.40;;
4808;SDS011;2418;49.930;8.606;2024-03-06T04:00:14;22.40;;;13.95;;
4808;SDS011;2418;49.930;8.606;2024-03-06T04:02:42;21.98;;;14.10;;
4808;SDS011;2418;49.930;8.606;2024-03-06T04:05:08;25.63;;;14.27;;
4808;SDS011;2418;49.930;8.606;2024-03-06T04:07:35;22.40;;;13.77;;
4808;SDS011;2418;49.930;8.606;2024-03-06T04:10:01;21.42;;;14.13;;
4808;SDS011;2418;49.930;8.606;2024-03-06T04:12:27;19.85;;;13.48;;
4808;SDS011;2418;49.930;8.606;2024-03-06T04:14:53;25.03;;;14.10;;
4808;SDS011;2418;49.930;8.606;2024-03-06T04:17:19;22.08;;;13.60;;
4808;SDS011;2418;49.930;8.606;2024-03-06T04:19:45;22.45;;;13.77;;
4808;SDS011;2418;49.930;8.606;2024-03-06T04:22:13;27.50;;;15.40;;
4808;SDS011;2418;49.930;8.606;2024-03-06T04:24:40;21.55;;;14.35;;
4808;SDS011;2418;49.930;8.606;2024-03-06T04:27:07;27.85;;;14.95;;
4808;SDS011;2418;49.930;8.606;2024-03-06T04:29:33;22.25;;;14.35;;
4808;SDS011;2418;49.930;8.606;2024-03-06T04:31:59;22.60;;;13.98;;
4808;SDS011;2418;49.930;8.606;2024-03-06T04:34:25;25.23;;;15.80;;
4808;SDS011;2418;49.930;8.606;2024-03-06T04:36:51;26.27;;;14.63;;
4808;SDS011;2418;49.930;8.606;2024-03-06T04:39:17;29.75;;;15.10;;
4808;SDS011;2418;49.930;8.606;2024-03-06T04:41:44;28.13;;;15.35;;
4808;SDS011;2418;49.930;8.606;2024-03-06T04:44:10;31.33;;;15.10;;
4808;SDS011;2418;49.930;8.606;2024-03-06T04:46:36;21.13;;;14.23;;
4808;SDS011;2418;49.930;8.606;2024-03-06T04:49:02;21.80;;;13.00;;
4808;SDS011;2418;49.930;8.606;2024-03-06T04:51:28;28.30;;;13.88;;
4808;SDS011;2418;49.930;8.606;2024-03-06T04:53:54;26.27;;;13.75;;
4808;SDS011;2418;49.930;8.606;2024-03-06T04:56:20;24.00;;;14.27;;
4808;SDS011;2418;49.930;8.606;2024-03-06T04:58:47;26.35;;;13.77;;
4808;SDS011;2418;49.930;8.606;2024-03-06T05:01:13;19.67;;;13.20;;
4808;SDS011;2418;49.930;8.606;2024-03-06T05:03:39;23.65;;;13.43;;
4808;SDS011;2418;49.930;8.606;2024-03-06T05:06:05;18.42;;;12.80;;
4808;SDS011;2418;49.930;8.606;2024-03-06T05:08:31;23.73;;;13.15;;
4808;SDS011;2418;49.930;8.606;2024-03-06T05:10:59;20.60;;;13.32;;
4808;SDS011;2418;49.930;8.606;2024-03-06T05:13:25;20.13;;;13.10;;
4808;SDS011;2418;49.930;8.606;2024-03-06T05:15:51;16.77;;;12.48;;
4808;SDS011;2418;49.930;8.606;2024-03-06T05:18:19;22.05;;;13.60;;
4808;SDS011;2418;49.930;8.606;2024-03-06T05:20:46;16.92;;;12.30;;
4808;SDS011;2418;49.930;8.606;2024-03-06T05:23:12;27.10;;;13.18;;
4808;SDS011;2418;49.930;8.606;2024-03-06T05:25:39;27.00;;;14.30;;
4808;SDS011;2418;49.930;8.606;2024-03-06T05:28:06;27.02;;;13.63;;
4808;SDS011;2418;49.930;8.606;2024-03-06T05:30:32;22.93;;;13.50;;
4808;SDS011;2418;49.930;8.606;2024-03-06T05:32:58;23.77;;;13.82;;
4808;SDS011;2418;49.930;8.606;2024-03-06T05:35:24;23.90;;;13.93;;
4808;SDS011;2418;49.930;8.606;2024-03-06T05:37:50;25.23;;;14.30;;
4808;SDS011;2418;49.930;8.606;2024-03-06T05:40:16;26.58;;;14.65;;
4808;SDS011;2418;49.930;8.606;2024-03-06T05:42:42;23.55;;;13.70;;
4808;SDS011;2418;49.930;8.606;2024-03-06T05:45:08;25.08;;;14.07;;
4808;SDS011;2418;49.930;8.606;2024-03-06T05:47:37;26.65;;;13.77;;
4808;SDS011;2418;49.930;8.606;2024-03-06T05:50:06;21.50;;;12.85;;
4808;SDS011;2418;49.930;8.606;2024-03-06T05:52:33;16.60;;;11.77;;
4808;SDS011;2418;49.930;8.606;2024-03-06T05:54:59;22.27;;;12.48;;
4808;SDS011;2418;49.930;8.606;2024-03-06T05:57:25;21.92;;;12.65;;
4808;SDS011;2418;49.930;8.606;2024-03-06T05:59:51;21.77;;;12.27;;
4808;SDS011;2418;49.930;8.606;2024-03-06T06:02:17;20.67;;;12.30;;
4808;SDS011;2418;49.930;8.606;2024-03-06T06:04:44;22.75;;;13.10;;
4808;SDS011;2418;49.930;8.606;2024-03-06T06:07:10;20.33;;;11.70;;
4808;SDS011;2418;49.930;8.606;2024-03-06T06:09:36;18.90;;;11.52;;
4808;SDS011;2418;49.930;8.606;2024-03-06T06:12:02;18.10;;;11.60;;
4808;SDS011;2418;49.930;8.606;2024-03-06T06:14:28;22.40;;;12.53;;
4808;SDS011;2418;49.930;8.606;2024-03-06T06:16:54;16.70;;;12.15;;
4808;SDS011;2418;49.930;8.606;2024-03-06T06:19:20;16.98;;;12.88;;
4808;SDS011;2418;49.930;8.606;2024-03-06T06:21:47;19.60;;;12.00;;
4808;SDS011;2418;49.930;8.606;2024-03-06T06:24:13;19.67;;;12.77;;
4808;SDS011;2418;49.930;8.606;2024-03-06T06:26:39;17.05;;;12.63;;
4808;SDS011;2418;49.930;8.606;2024-03-06T06:29:05;19.63;;;11.60;;
4808;SDS011;2418;49.930;8.606;2024-03-06T06:31:31;22.95;;;13.40;;
4808;SDS011;2418;49.930;8.606;2024-03-06T06:33:57;23.70;;;13.00;;
4808;SDS011;2418;49.930;8.606;2024-03-06T06:36:23;20.08;;;12.98;;
4808;SDS011;2418;49.930;8.606;2024-03-06T06:38:49;18.05;;;12.45;;
4808;SDS011;2418;49.930;8.606;2024-03-06T06:41:16;20.05;;;13.18;;
4808;SDS011;2418;49.930;8.606;2024-03-06T06:43:42;24.85;;;12.88;;
4808;SDS011;2418;49.930;8.606;2024-03-06T06:46:08;30.75;;;17.77;;
4808;SDS011;2418;49.930;8.606;2024-03-06T06:48:35;43.65;;;25.65;;
4808;SDS011;2418;49.930;8.606;2024-03-06T06:51:01;41.70;;;24.02;;
4808;SDS011;2418;49.930;8.606;2024-03-06T06:53:28;32.37;;;16.90;;
4808;SDS011;2418;49.930;8.606;2024-03-06T06:55:54;18.48;;;13.07;;
4808;SDS011;2418;49.930;8.606;2024-03-06T06:58:20;20.48;;;14.05;;
4808;SDS011;2418;49.930;8.606;2024-03-06T07:00:46;19.65;;;14.07;;
4808;SDS011;2418;49.930;8.606;2024-03-06T07:03:13;23.60;;;15.60;;
4808;SDS011;2418;49.930;8.606;2024-03-06T07:05:39;24.55;;;15.02;;
4808;SDS011;2418;49.930;8.606;2024-03-06T07:08:07;23.70;;;14.63;;
4808;SDS011;2418;49.930;8.606;2024-03-06T07:10:33;24.80;;;14.20;;
4808;SDS011;2418;49.930;8.606;2024-03-06T07:13:00;24.58;;;15.18;;
4808;SDS011;2418;49.930;8.606;2024-03-06T07:15:27;20.85;;;13.85;;
4808;SDS011;2418;49.930;8.606;2024-03-06T07:17:53;19.03;;;14.67;;
4808;SDS011;2418;49.930;8.606;2024-03-06T07:20:19;26.53;;;18.40;;
4808;SDS011;2418;49.930;8.606;2024-03-06T07:22:45;21.90;;;16.00;;
4808;SDS011;2418;49.930;8.606;2024-03-06T07:25:11;21.30;;;15.03;;
4808;SDS011;2418;49.930;8.606;2024-03-06T07:27:38;21.50;;;13.65;;
4808;SDS011;2418;49.930;8.606;2024-03-06T07:30:05;17.37;;;13.97;;
4808;SDS011;2418;49.930;8.606;2024-03-06T07:32:32;24.20;;;14.38;;
4808;SDS011;2418;49.930;8.606;2024-03-06T07:34:59;16.83;;;12.40;;
4808;SDS011;2418;49.930;8.606;2024-03-06T07:37:25;13.65;;;11.48;;
4808;SDS011;2418;49.930;8.606;2024-03-06T07:39:51;14.63;;;11.60;;
4808;SDS011;2418;49.930;8.606;2024-03-06T07:42:17;14.95;;;12.15;;
4808;SDS011;2418;49.930;8.606;2024-03-06T07:44:43;15.90;;;11.27;;
4808;SDS011;2418;49.930;8.606;2024-03-06T07:47:09;17.30;;;12.00;;
4808;SDS011;2418;49.930;8.606;2024-03-06T07:49:37;13.10;;;11.40;;
4808;SDS011;2418;49.930;8.606;2024-03-06T07:52:03;15.00;;;10.93;;
4808;SDS011;2418;49.930;8.606;2024-03-06T07:54:29;23.05;;;14.95;;
4808;SDS011;2418;49.930;8.606;2024-03-06T07:56:55;17.10;;;11.68;;
4808;SDS011;2418;49.930;8.606;2024-03-06T07:59:21;12.35;;;9.60;;
4808;SDS011;2418;49.930;8.606;2024-03-06T08:01:47;15.15;;;9.48;;
4808;SDS011;2418;49.930;8.606;2024-03-06T08:04:13;14.70;;;10.30;;
4808;SDS011;2418;49.930;8.606;2024-03-06T08:06:39;9.57;;;8.32;;
4808;SDS011;2418;49.930;8.606;2024-03-06T08:09:06;7.57;;;6.90;;
4808;SDS011;2418;49.930;8.606;2024-03-06T08:11:32;11.85;;;7.80;;
4808;SDS011;2418;49.930;8.606;2024-03-06T08:13:59;13.02;;;8.00;;
4808;SDS011;2418;49.930;8.606;2024-03-06T08:16:26;8.25;;;6.85;;
4808;SDS011;2418;49.930;8.606;2024-03-06T08:18:52;8.95;;;7.60;;
4808;SDS011;2418;49.930;8.606;2024-03-06T08:21:18;8.30;;;7.10;;
4808;SDS011;2418;49.930;8.606;2024-03-06T08:23:47;8.35;;;7.55;;
4808;SDS011;2418;49.930;8.606;2024-03-06T08:26:14;8.25;;;7.45;;
4808;SDS011;2418;49.930;8.606;2024-03-06T08:28:40;11.93;;;7.82;;
4808;SDS011;2418;49.930;8.606;2024-03-06T08:31:06;9.38;;;7.65;;
4808;SDS011;2418;49.930;8.606;2024-03-06T08:33:33;9.57;;;8.68;;
4808;SDS011;2418;49.930;8.606;2024-03-06T08:35:59;8.77;;;7.70;;
4808;SDS011;2418;49.930;8.606;2024-03-06T08:38:26;10.07;;;9.00;;
4808;SDS011;2418;49.930;8.606;2024-03-06T08:40:52;8.93;;;8.02;;
4808;SDS011;2418;49.930;8.606;2024-03-06T08:43:18;8.88;;;8.07;;
4808;SDS011;2418;49.930;8.606;2024-03-06T08:45:45;12.80;;;8.63;;
4808;SDS011;2418;49.930;8.606;2024-03-06T08:48:11;10.60;;;9.48;;
4808;SDS011;2418;49.930;8.606;2024-03-06T08:50:37;9.18;;;8.00;;
4808;SDS011;2418;49.930;8.606;2024-03-06T08:53:03;8.87;;;7.70;;
4808;SDS011;2418;49.930;8.606;2024-03-06T08:55:29;9.05;;;8.25;;
4808;SDS011;2418;49.930;8.606;2024-03-06T08:57:55;10.38;;;9.38;;
4808;SDS011;2418;49.930;8.606;2024-03-06T09:00:21;13.13;;;8.90;;
4808;SDS011;2418;49.930;8.606;2024-03-06T09:02:47;11.57;;;10.40;;
4808;SDS011;2418;49.930;8.606;2024-03-06T09:05:14;13.30;;;9.57;;
4808;SDS011;2418;49.930;8.606;2024-03-06T09:07:40;10.45;;;9.38;;
4808;SDS011;2418;49.930;8.606;2024-03-06T09:10:07;11.00;;;9.93;;
4808;SDS011;2418;49.930;8.606;2024-03-06T09:12:34;10.98;;;9.88;;
4808;SDS011;2418;49.930;8.606;2024-03-06T09:15:00;11.77;;;9.98;;
4808;SDS011;2418;49.930;8.606;2024-03-06T09:17:27;12.63;;;10.15;;
4808;SDS011;2418;49.930;8.606;2024-03-06T09:19:53;12.02;;;9.73;;
4808;SDS011;2418;49.930;8.606;2024-03-06T09:22:19;17.03;;;12.03;;
4808;SDS011;2418;49.930;8.606;2024-03-06T09:24:45;14.00;;;11.43;;
4808;SDS011;2418;49.930;8.606;2024-03-06T09:27:13;27.20;;;13.25;;
4808;SDS011;2418;49.930;8.606;2024-03-06T09:29:39;16.50;;;12.68;;
4808;SDS011;2418;49.930;8.606;2024-03-06T09:32:06;26.10;;;16.10;;
4808;SDS011;2418;49.930;8.606;2024-03-06T09:34:32;23.55;;;16.05;;
4808;SDS011;2418;49.930;8.606;2024-03-06T09:36:58;20.85;;;16.08;;
4808;SDS011;2418;49.930;8.606;2024-03-06T09:39:24;22.98;;;16.45;;
4808;SDS011;2418;49.930;8.606;2024-03-06T09:41:50;25.30;;;14.93;;
4808;SDS011;2418;49.930;8.606;2024-03-06T09:44:17;21.00;;;15.33;;
4808;SDS011;2418;49.930;8.606;2024-03-06T09:46:45;22.73;;;16.00;;
4808;SDS011;2418;49.930;8.606;2024-03-06T09:49:12;21.58;;;15.30;;
4808;SDS011;2418;49.930;8.606;2024-03-06T09:51:42;24.00;;;14.70;;
4808;SDS011;2418;49.930;8.606;2024-03-06T09:54:12;23.15;;;16.15;;
4808;SDS011;2418;49.930;8.606;2024-03-06T09:56:40;20.23;;;15.88;;
4808;SDS011;2418;49.930;8.606;2024-03-06T09:59:06;26.00;;;15.70;;
4808;SDS011;2418;49.930;8.606;2024-03-06T10:01:32;22.73;;;16.40;;
4808;SDS011;2418;49.930;8.606;2024-03-06T10:03:58;28.40;;;18.50;;
4808;SDS011;2418;49.930;8.606;2024-03-06T10:06:24;23.95;;;17.65;;
4808;SDS011;2418;49.930;8.606;2024-03-06T10:08:51;27.85;;;18.20;;
4808;SDS011;2418;49.930;8.606;2024-03-06T10:11:17;30.08;;;18.40;;
4808;SDS011;2418;49.930;8.606;2024-03-06T10:13:44;25.08;;;18.13;;
4808;SDS011;2418;49.930;8.606;2024-03-06T10:16:10;26.67;;;17.93;;
4808;SDS011;2418;49.930;8.606;2024-03-06T10:18:36;27.98;;;18.23;;
4808;SDS011;2418;49.930;8.606;2024-03-06T10:21:05;32.10;;;18.65;;
4808;SDS011;2418;49.930;8.606;2024-03-06T10:23:31;23.25;;;17.65;;
4808;SDS011;2418;49.930;8.606;2024-03-06T10:25:58;26.85;;;18.50;;
4808;SDS011;2418;49.930;8.606;2024-03-06T10:28:24;27.27;;;17.90;;
4808;SDS011;2418;49.930;8.606;2024-03-06T10:30:50;28.90;;;18.03;;
4808;SDS011;2418;49.930;8.606;2024-03-06T10:33:18;25.83;;;18.67;;
4808;SDS011;2418;49.930;8.606;2024-03-06T10:35:45;23.50;;;17.27;;
4808;SDS011;2418;49.930;8.606;2024-03-06T10:38:11;26.15;;;15.85;;
4808;SDS011;2418;49.930;8.606;2024-03-06T10:40:38;20.85;;;15.57;;
4808;SDS011;2418;49.930;8.606;2024-03-06T10:43:05;27.80;;;17.40;;
4808;SDS011;2418;49.930;8.606;2024-03-06T10:45:42;22.37;;;14.27;;
4808;SDS011;2418;49.930;8.606;2024-03-06T10:48:16;25.10;;;15.73;;
4808;SDS011;2418;49.930;8.606;2024-03-06T10:50:42;25.70;;;15.90;;
4808;SDS011;2418;49.930;8.606;2024-03-06T10:53:09;22.85;;;15.10;;
4808;SDS011;2418;49.930;8.606;2024-03-06T10:55:36;21.20;;;14.18;;
4808;SDS011;2418;49.930;8.606;2024-03-06T10:58:05;25.73;;;16.00;;
4808;SDS011;2418;49.930;8.606;2024-03-06T11:00:38;25.45;;;15.52;;
4808;SDS011;2418;49.930;8.606;2024-03-06T11:03:05;24.55;;;15.30;;
4808;SDS011;2418;49.930;8.606;2024-03-06T11:05:37;25.83;;;15.98;;
4808;SDS011;2418;49.930;8.606;2024-03-06T11:08:05;26.60;;;16.80;;
4808;SDS011;2418;49.930;8.606;2024-03-06T11:10:33;28.20;;;17.08;;
4808;SDS011;2418;49.930;8.606;2024-03-06T11:12:59;23.85;;;14.85;;
4808;SDS011;2418;49.930;8.606;2024-03-06T11:15:26;25.13;;;16.08;;
4808;SDS011;2418;49.930;8.606;2024-03-06T11:17:52;21.67;;;14.73;;
4808;SDS011;2418;49.930;8.606;2024-03-06T11:20:22;20.88;;;14.48;;
4808;SDS011;2418;49.930;8.606;2024-03-06T11:28:09;25.33;;;14.75;;
4808;SDS011;2418;49.930;8.606;2024-03-06T11:30:44;19.95;;;14.20;;
4808;SDS011;2418;49.930;8.606;2024-03-06T11:33:12;18.10;;;13.70;;
4808;SDS011;2418;49.930;8.606;2024-03-06T11:35:38;16.88;;;12.48;;
4808;SDS011;2418;49.930;8.606;2024-03-06T11:38:09;17.88;;;12.40;;
4808;SDS011;2418;49.930;8.606;2024-03-06T11:40:42;16.92;;;11.88;;
4808;SDS011;2418;49.930;8.606;2024-03-06T11:43:24;18.70;;;11.85;;
4808;SDS011;2418;49.930;8.606;2024-03-06T11:45:51;17.40;;;12.23;;
4808;SDS011;2418;49.930;8.606;2024-03-06T11:48:17;20.10;;;12.50;;
4808;SDS011;2418;49.930;8.606;2024-03-06T11:50:46;16.65;;;12.40;;
4808;SDS011;2418;49.930;8.606;2024-03-06T11:53:13;17.08;;;11.25;;
4808;SDS011;2418;49.930;8.606;2024-03-06T11:55:40;19.70;;;13.45;;
4808;SDS011;2418;49.930;8.606;2024-03-06T11:58:06;17.65;;;12.75;;
4808;SDS011;2418;49.930;8.606;2024-03-06T12:00:33;19.15;;;13.25;;
4808;SDS011;2418;49.930;8.606;2024-03-06T12:02:59;19.13;;;13.52;;
4808;SDS011;2418;49.930;8.606;2024-03-06T12:05:25;19.90;;;13.50;;
4808;SDS011;2418;49.930;8.606;2024-03-06T12:07:52;20.02;;;13.73;;
4808;SDS011;2418;49.930;8.606;2024-03-06T12:10:19;18.27;;;13.90;;
4808;SDS011;2418;49.930;8.606;2024-03-06T12:12:45;19.25;;;13.23;;
4808;SDS011;2418;49.930;8.606;2024-03-06T12:15:13;22.15;;;12.52;;
4808;SDS011;2418;49.930;8.606;2024-03-06T12:17:49;19.23;;;13.65;;
4808;SDS011;2418;49.930;8.606;2024-03-06T12:20:16;21.38;;;12.43;;
4808;SDS011;2418;49.930;8.606;2024-03-06T12:22:52;20.77;;;13.07;;
4808;SDS011;2418;49.930;8.606;2024-03-06T12:25:23;20.45;;;13.00;;
4808;SDS011;2418;49.930;8.606;2024-03-06T12:27:53;20.20;;;13.50;;
4808;SDS011;2418;49.930;8.606;2024-03-06T12:30:22;22.10;;;14.15;;
4808;SDS011;2418;49.930;8.606;2024-03-06T12:32:56;22.60;;;15.18;;
4808;SDS011;2418;49.930;8.606;2024-03-06T12:35:28;23.50;;;15.00;;
4808;SDS011;2418;49.930;8.606;2024-03-06T12:37:53;21.07;;;14.37;;
4808;SDS011;2418;49.930;8.606;2024-03-06T12:40:21;23.40;;;15.40;;
4808;SDS011;2418;49.930;8.606;2024-03-06T12:42:47;19.17;;;13.80;;
4808;SDS011;2418;49.930;8.606;2024-03-06T12:45:14;19.83;;;13.57;;
4808;SDS011;2418;49.930;8.606;2024-03-06T12:47:44;19.98;;;12.77;;
4808;SDS011;2418;49.930;8.606;2024-03-06T12:50:13;21.15;;;14.30;;
4808;SDS011;2418;49.930;8.606;2024-03-06T12:52:40;20.83;;;13.70;;
4808;SDS011;2418;49.930;8.606;2024-03-06T12:55:06;25.20;;;16.25;;
4808;SDS011;2418;49.930;8.606;2024-03-06T12:57:32;19.13;;;13.63;;
4808;SDS011;2418;49.930;8.606;2024-03-06T12:59:58;25.02;;;14.32;;
4808;SDS011;2418;49.930;8.606;2024-03-06T13:02:24;24.57;;;15.93;;
4808;SDS011;2418;49.930;8.606;2024-03-06T13:04:51;19.40;;;13.55;;
4808;SDS011;2418;49.930;8.606;2024-03-06T13:07:17;23.23;;;14.23;;
4808;SDS011;2418;49.930;8.606;2024-03-06T13:09:43;20.95;;;13.65;;
4808;SDS011;2418;49.930;8.606;2024-03-06T13:12:09;25.83;;;15.90;;
4808;SDS011;2418;49.930;8.606;2024-03-06T13:14:35;21.35;;;13.85;;
4808;SDS011;2418;49.930;8.606;2024-03-06T13:17:01;25.13;;;15.20;;
4808;SDS011;2418;49.930;8.606;2024-03-06T13:19:27;20.45;;;14.35;;
4808;SDS011;2418;49.930;8.606;2024-03-06T13:21:54;23.25;;;14.85;;
4808;SDS011;2418;49.930;8.606;2024-03-06T13:24:20;22.23;;;14.20;;
4808;SDS011;2418;49.930;8.606;2024-03-06T13:26:46;28.38;;;15.48;;
4808;SDS011;2418;49.930;8.606;2024-03-06T13:29:12;21.60;;;14.80;;
4808;SDS011;2418;49.930;8.606;2024-03-06T13:31:38;25.38;;;16.00;;
4808;SDS011;2418;49.930;8.606;2024-03-06T13:34:04;25.73;;;16.02;;
4808;SDS011;2418;49.930;8.606;2024-03-06T13:36:30;28.08;;;16.17;;
4808;SDS011;2418;49.930;8.606;2024-03-06T13:38:56;25.67;;;15.80;;
4808;SDS011;2418;49.930;8.606;2024-03-06T13:41:23;24.20;;;15.50;;
4808;SDS011;2418;49.930;8.606;2024-03-06T13:43:49;25.50;;;15.57;;
4808;SDS011;2418;49.930;8.606;2024-03-06T13:46:15;29.65;;;16.35;;
4808;SDS011;2418;49.930;8.606;2024-03-06T13:48:41;28.53;;;15.43;;
4808;SDS011;2418;49.930;8.606;2024-03-06T13:51:07;27.10;;;15.45;;
4808;SDS011;2418;49.930;8.606;2024-03-06T13:53:33;25.42;;;15.30;;
4808;SDS011;2418;49.930;8.606;2024-03-06T13:55:59;30.10;;;16.77;;
4808;SDS011;2418;49.930;8.606;2024-03-06T13:58:25;21.60;;;14.60;;
4808;SDS011;2418;49.930;8.606;2024-03-06T14:00:53;27.35;;;15.60;;
4808;SDS011;2418;49.930;8.606;2024-03-06T14:03:19;25.02;;;15.55;;
4808;SDS011;2418;49.930;8.606;2024-03-06T14:05:45;30.63;;;16.30;;
4808;SDS011;2418;49.930;8.606;2024-03-06T14:08:11;26.70;;;15.55;;
4808;SDS011;2418;49.930;8.606;2024-03-06T14:10:40;28.05;;;16.25;;
4808;SDS011;2418;49.930;8.606;2024-03-06T14:13:06;25.45;;;16.30;;
4808;SDS011;2418;49.930;8.606;2024-03-06T14:15:33;29.02;;;15.80;;
4808;SDS011;2418;49.930;8.606;2024-03-06T14:17:59;24.80;;;15.40;;
4808;SDS011;2418;49.930;8.606;2024-03-06T14:20:26;25.17;;;15.07;;
4808;SDS011;2418;49.930;8.606;2024-03-06T14:22:53;22.85;;;14.13;;
4808;SDS011;2418;49.930;8.606;2024-03-06T14:25:19;24.02;;;14.45;;
4808;SDS011;2418;49.930;8.606;2024-03-06T14:27:45;31.27;;;15.13;;
4808;SDS011;2418;49.930;8.606;2024-03-06T14:30:12;21.10;;;14.40;;
4808;SDS011;2418;49.930;8.606;2024-03-06T14:32:40;21.30;;;14.32;;
4808;SDS011;2418;49.930;8.606;2024-03-06T14:35:06;22.30;;;14.40;;
4808;SDS011;2418;49.930;8.606;2024-03-06T14:37:32;20.80;;;14.15;;
4808;SDS011;2418;49.930;8.606;2024-03-06T14:39:58;22.00;;;13.52;;
4808;SDS011;2418;49.930;8.606;2024-03-06T14:42:24;17.75;;;12.40;;
4808;SDS011;2418;49.930;8.606;2024-03-06T14:44:53;19.65;;;12.95;;
4808;SDS011;2418;49.930;8.606;2024-03-06T14:47:19;18.92;;;13.07;;
4808;SDS011;2418;49.930;8.606;2024-03-06T14:49:45;20.17;;;12.98;;
4808;SDS011;2418;49.930;8.606;2024-03-06T14:52:11;16.23;;;11.65;;